Race Results for
Piney Hills Classic Mountain Bike Race
Ruston, LA
(Event Information)
Cross Country on 10/16/2011

Note: Ranking points are NOT upgrade points. An explanation of ranking points can be found here.


Men - SingleSpeed 2/3 - 0-99

 Place Points NameCity, StateTime USAC #BibTeam
1471.98Scot Pemberton   Stiener Ranch, TX1:39:35 114557  202 Monkey Wrench Racing
2Mitch Frank   1:40:11  207 
3501.48Scott Hargrove   Jena, LA1:42:55 255902  209 S3
4516.23Michael Gorton   Lake Charles, LA1:54:17 333354  203 Rhino Racing
5530.98Mark Wise   Houston, TX1:58:09 160025  332 Bike Barn
6545.73Ricky Kennedy   Metairie, LA2:01:17 345186  201 NOMAMBO East Bank Cyclery
7560.48Pam Jackson   Garland, TX2:01:44 157028  208 RBM Matrix/ Max Muscle
8575.23William Horvath   New Orleans, LA2:11:20 192615  204 NOMAMBO
9589.98Phil Barnidge   Youngsville, LA2:45:57 197192  205 Team JAMBA
DNFSteven Lieby (Cat3)   Houston, TXDNF 331346  206 

Men - Cat 2 - 15-18

 Place Points NameCity, StateTime USAC #BibTeam
1452.86Kendal Young   Mineral Wells, TX1:36:54 360780  227 Matrix/RBM
2461.08Robby Ketterhagen   Georgetown, TX1:39:25 337506  225 787 Racing
3469.30Cesar Tidrick   Austin1:44:36 320954  221 Bicycle Sport Shop
4477.52Jonah Boatman   Austin, TX1:46:55 308456  224 Southern Elite/Sun & Ski Sports/PARD
5485.74Rob Sandusky   Frisco, TX1:49:13 291129  222 Matrix/RBM
6493.96John R Madden   Houston, TX1:51:16 329156  223 Bike Barn Houston
DNFJames Procter   DNF  226 Southern Elite/Sun & Ski Sports/PARD

Men - Cat 2 - 19-34

 Place Points NameCity, StateTime USAC #BibTeam
1499.94Branden Morvant   Metairie, LA1:35:02 191139  236 Gary Fisher 29'r Crew
2Scott Richards   1:36:18  238 Rhino Racing
3512.80Craig Roberson   West Monroe1:37:23 358002  247 sweatblooddirt.com
4519.23Tyler Sutton   Jackson, TN1:38:37 269036  241 Walmart. BMC
5Emitt Tiner   1:39:27  233 
6532.09Kent Myers   Austin, TX1:39:28 260618  234 Austin Cycle Camp
7Tim Kettenring`   1:41:18  244 
8544.95Eduardo Lopez   Benton, LA1:42:13 330370  240 Bikes Ect.
9551.38Derek Chavez   Texarkana, TX1:46:04 352602  243 
10Al Ruiz   1:47:45  246 Bronze Body/Kinsel Ford
11564.24Jesse Henry   Destrehan, LA1:54:44 351076  239 Eastbank Cycle
12570.67Ryan Oswald   Bossier City, LA1:55:34 325720  232 Team LaS'port
13Rico Vazquez   1:55:58  242 Des TROY
14583.53Joel Williams   Beaumont, TX2:09:04 188275  245 Hill Country Bicycle Works
15Justin Marsteller   2:12:53  235 
DNSRussel Lubon   DNS  231 

Men - Cat 2 - 35-44

 Place Points NameCity, StateTime USAC #BibTeam
1413.90Charlie Dixon   Beaumont, TX1:33:59 53469  272 Bronze Body Kinsel Ford
2420.94Tim Woodruff   Anna, TX1:36:58 168504  288 Cadence Cyclery
3427.98Jakub Haba   Shreveport, LA1:37:59 343396  279 LOLCO
4435.02John Layne   Waco, TX1:39:16 297626  287 Bikeland Dev. Factory Team
5442.06taury patterson   Dallas, TX1:40:05 360255  283 
6449.10Jamie Bell   Arlington, TX1:41:00 303829  281 Bicycles Inc
7456.14Marc Crozier   New Braunfels, TX1:42:08 178260  284 Young Life Racing
8Lucas Hilbrich   1:42:28  273 
9470.22nathan vanwinterswyk   Shreveport, LA1:43:32 348624  290 LOCO
10477.26Cary Beene   Shreveport, LA1:44:20 345900  292 Loco
11Joe Gonzalez   1:45:07  293 Dos Patrons
12491.34Ryan Boudreaux   Westwego, LA1:45:50 193992  282 
13498.38Mike Meiers   Sugarland, TX1:48:52 365174  285 EnviroInks.com/Bike Route
14505.42Keith Pitman   Minden, LA1:49:20 342372  276 Extreme Missionary Adventures
15512.46Brent Fay   Saint Rose, LA1:50:15 348932  278 NOMAMBO/Eastbank Cyclery
16519.50Scott McGowan   Canton, TX1:50:33 23494  297 Canton Power Sports
17Ed Novak   1:50:39  280 Midsouth Masters
18Jason Gay   1:51:56  237 Dallas Bike Works
19540.62Bjarne Haug   New Orleans, LA1:52:47 348806  275 NOMAMBO/Eastbank Cyclery
20547.66Toby Cortez   La Place, LA1:55:35 343274  289 
21Kyle Fisher   1:56:11  286 EnviroInks.com
22561.74Ryan Lawson   New Orleans, LA1:56:29 335552  274 NOMAMBO/Eastbank Cyclery
23568.78Donna Del Bello   Austin, TX2:01:12 235890  299 
24Shawn Riggs   2:07:04  298 Team Bicycle Sport Shop
25582.86Colin Hill   League City, TX2:08:30 283831  277 BikeLand Developmental Factory Team
26Andy Piner   2:30:05  294 
DNFDon Booker   Sachse, TXDNF 178241  291 Cap Carter Racing
DNFEric Heyl   Destrehan, LADNF 112214  271 Eastbank Cyclery/NOMAMBO

Men - Cat 2 - 45-99

 Place Points NameCity, StateTime USAC #BibTeam
1Scott Garganus   1:42:45  296 La'Sport
2506.66Shane Booth   Lewisville, TX1:43:28 184944  323 Team BikeMojo.com
3511.29Chris Olson   Houston, TX1:45:56 26709  328 
4515.92Robert Sandusky   Frisco, TX1:46:38 309280  311 Matrix/RBM
5520.55Doug Lange   Mountain Top, PA1:46:43 153167  315 Monkey Wrench Racing
6525.18James Ramsaur   Ruston, LA1:47:35 29095  324 Piney Hill Cyclist
7529.81John T Scripture   Bossiercity, LA1:48:13 290827  317 Team LaS'port
8534.44Cole Gober   Beaumont, TX1:48:56 50573  327 Braze Body/Kinsey
9539.07John Ashby   Texarkana, AR1:49:12 304034  318 Carve
10543.70Dennis Livingston   Red Oak, TX1:51:22 185910  330 
11548.33Brian Smith   Shreveport, LA1:53:11 220677  314 Team LaS'port
12Butch Jordan   1:56:02  295 Team LaS'port
13Price Border   1:58:19  333 LOCO
14Robert Sparacino   2:00:15  316 Bike Lane
15566.85Rick Hendricks   West Monroe, LA2:01:43 265332  322 
16571.48John Dowling   Seabrook, TX2:02:26 318478  313 enviroINKS.com/Bike Route
17Clay Cook   2:05:44  319 LOCO
18580.74Scott Tucker   Burleson, TX2:05:54 152054  331 Bicycles Inc.
19585.37Tracy Storm   Arlington, TX2:31:48 34304  321 
20590.00Floyd Romero   Thecolony, TX2:38:00 303668  312 Bicycles Inc./Trek
DNFBill Nelson   Reklaw, TXDNF 286856  325 
DNFMike Schmidt   Stafford, TXDNF 31647  326 unattached
DNFDrew Tucker   Richardson, TXDNF 145515  320 Matrix/ Richardson Bike Mart

Men - Cat 3 - 1-10

 Place Points NameCity, StateTime USAC #BibTeam
1540.00Hayden Otto   Muenster, TX0:19:38 366868  573 TACO CASA / Bicycles Plus
2Bryce Gray   0:19:55  572 Team Bike Lane
3Dawson Layne   0:20:35  575 Bikeland Developmental Factory Team
4570.00Ian Petko   Spring, TX0:24:57 377764  563 Unlimited Sports Adventure
5Tucker Pitman   0:31:17  571 
6Merrick McDonald   1:01:15  574 Webster Bike
DNSHunter Ben Moore   DNS  576 

Men - Cat 3 - 11-12

 Place Points NameCity, StateTime USAC #BibTeam
1540.00Blake Pilgrim   Forney, TX0:34:11 366570  561 Richardson Bikemart/Matrix JR
2Adin Allison   0:44:42  562 
3Jacob Rhymes   0:51:28  564 

Men - Cat 3 - 13-14

 Place Points NameCity, StateTime USAC #BibTeam
1439.33Ethan Storm   Arlington, TX0:51:04 341794  508 Matrix / Richardson Bike Mart
2446.18Luke Fleming   Damon, TX0:51:10 264100  506 Sugar Cycles
3453.03Austin Wagner   Burleson, TX0:55:12 336530  502 Richardson Bike Mart/Matrix
4459.88Henry Sandusky   Frisco, TX0:58:11 323098  503 Matrix/RBM
5466.73Ashton Dubroc   Sugar Land, TX0:59:11 344376  501 EnivroInks.com/Bike Route
6Alex Vazquez   1:00:08  510 TKO
7480.43Thomas Madden   Houston, TX1:07:25 329158  505 Bike Barn Houston
8487.28Nash Lilly   Irving, TX1:08:33 341232  507 Matrix RBM
9494.13Garrett Rolfe   Haughton, LA1:10:15 362004  504 
10Mavick McDonald   1:30:17  509 Webster Bikes

Men - Cat 3 - 15-18

 Place Points NameCity, StateTime USAC #BibTeam
1Michael Hamric Jr   0:49:45  492 Bike Barn - Champions
2Jake Haddox   0:54:18  550 
3531.55Clay F Cook   Shreveport, LA0:55:51 340498  495 LaS'port
4541.29Will Rolfe   Haughton, LA0:56:13 348812  491 
5551.03Daniel VanWinterswyk   Shreveport, LA0:59:40 346424  498 LA'sport
6Zach Smitherman   1:00:53  494 RBM Matrix/Sachse High School
7570.51Dakota Burklund   San Marcos, TX1:06:24 296255  496 Team Dakota
8Adam Lilly   1:07:04  493 
9Charlie Sattertwaite   1:22:52  499 RMB Matrix/Sachse High School

Men - Cat 3 - 19-34

 Place Points NameCity, StateTime USAC #BibTeam
1Bradley Bridges   0:50:33  500 
2542.08Daniel Martin   Shreveport, LA0:51:29 360278  425 LOCO- Louisiana Off Road Cycling Org
3544.16Bronson Breaux   Breaux Bridge, LA0:51:46 347118  412 
4546.24Andre Bertrand   Lake Charles, LA0:52:02 348194  418 Team Passing on the Left
5Christopher Rymal   0:52:19  413 
6550.40Thomas Sebring   Round Rock, TX0:52:29 349588  407 
7Michael Rodriguez   0:53:23  426 Simpsons Fitness
8554.56Ramon Fierros   Katy, TX0:53:24 339980  408 
9Chris Bartlett   0:53:36  417 MTB
10Michael Morgan   0:53:40  419 www.houstontechys.com
11560.80Jeff Vaughan   Baton Rouge, LA0:55:49 334298  415 Teknarus
12Brett May   0:55:53  410 
13Jason Alexander   0:57:16  409 
14Zach Tiner   0:57:41  416 
15Sean McRae   0:57:50  422 
16Judson Osbon   0:58:54  403 
17Andrew Tran   1:01:56  401 
18Borys German   1:02:19  405 
19Eric Gunter   1:02:40  411 
20579.52John Foval   Baton Rouge, LA1:03:14 358108  423 
21Jonathan Hicks   1:04:21  420 LOCO
22583.68Carl Buhay   Sugar Land, TX1:04:33 361436  402 
23Jerson-Allen Cometa   1:06:21  406 
24Clay Johnson   1:08:02  424 
25589.92Adam Rouillier   Paulina, LA1:13:02 310320  404 Team Geaux Race/Extreme Pita
DNSDavid Flanery   DNS  414 TEAM Me

Men - Cat 3 - 35-44

 Place Points NameCity, StateTime USAC #BibTeam
1Paul Breemen   0:53:03  432 
2521.78Jeff Boatman   Austin, TX0:53:24 300045  444 Southern Elite/Sun & Ski Sports/PARD
3524.88Mack Pekar   Lake Charles0:54:23 358065  450 
4527.98Andrew Tidrick   Austin, TX0:55:18 351560  440 
5531.08Raymond Benedict   Destrehan, LA0:56:17 344162  435 Eastbank Cyclery/NOMAMBO
6534.18Jonathan Dubroc   Sugar Land, TX0:56:45 345660  434 enviroINKS.com
7Jay Hymel   0:56:47  449 Big Pig Racing
8540.38Sam Benton   Brevard, NC0:57:12 93077  441 
9543.48Casey Simon   Greenwood, LA0:59:35 358165  454 
10546.58David Green   Shreveport, LA0:59:44 358146  433 
11549.68Maradian Bell   Ashdown, AR1:00:38 205018  452 
12552.78George Rolfe   Haughton, LA1:00:55 345292  448 
13555.88Adam Lynch   Bossier City, LA1:01:19 360604  443 LOCO
14Steven Thompson   1:01:25  437 Splatter Paint Racing
15562.08Don Armentrout   Beaumont, TX1:01:26 323656  489 Bronze Body
16565.18Juan Pagan   Conroe, TX1:03:00 346064  445 Bikeland Developmental Factory Team
17Brett Allison   1:03:24  439 Totally Spoked
18Thomas Aardahl   1:05:32  453 
19574.48Robb Wagner   Burleson, TX1:05:50 365611  438 
20577.58Michael Pilgrim   Forney Tx1:10:21 366566  436 
21580.68Adrian Meacham   Shreveport, LA1:12:23 340470  446 LOCO
22583.78Brian Fontenot   Abbeville, LA1:18:45 255257  447 Monkey Butt Cycling
23586.88Miles McDowell   Shreveport, LA1:19:26 344772  451 LOCO
24Kevin McDonald   1:43:52  442 
DNSDouglas Tennison   Shreveport, LADNS 341068  431 Louisiana Off-Road Cycling Organization

Men - Cat 3 - 45-99

 Place Points NameCity, StateTime USAC #BibTeam
1Michael Hamric   0:50:17  479 Bike Barn - Champions
2Ed Lamarche   0:55:25  329 Extreme Customs
3545.88Bill Petko   Spring, TX0:57:00 377003  485 
4548.82Tom Ketterhagen   Georgetown, TX0:59:57 334056  484 787 Racing
5Shannon Hodell   1:00:27  483 EnviroInks
6554.70Gary Todd   Bossier City, LA1:01:00 307546  474 Team LaS'port
7557.64Dan Marchok   Princeton, TX1:01:56 358548  477 Cap Carter Racing
8560.58David Hammons   Austin, TX1:02:20 14874  481 
9563.52Ricky Fontenot   Ville Platte, LA1:02:55 11975  480 Monkey Butt Cycling
10566.46Troy Vaughn   Boyce, LA1:03:13 358029  471 
11569.40John Parten   Giddings, TX1:05:26 42968  476 Bicycles Inc.
12572.34Ted Buller   Lafayette, LA1:08:30 358303  475 
13575.28Timothy Storbeck   Beaumont, TX1:10:16 54251  488 
14Andy Buller   1:10:49  487 CAB
15Jose De La Rocha   1:15:43  490 Matrix/RBM
16Glay Collier   1:18:36  482 
17587.04Jon Hebert   Metairie, LA1:21:51 113128  473 JRB
18589.98Clay Autery   Haughton, LA2:02:16 360688  486 
DNSJoey Anzaldua   Bedford, TXDNS 311887  472 Bicycles Inc.

Women - Cat 2 - 19-39

 Place Points NameCity, StateTime USAC #BibTeam
1528.04Catherine C. Moore   Benton, LA1:51:24 357066  345 LOCO- Louisiana Off Road Cycling Org
2548.69Sarah Ginsbach   Huntsville, TX1:52:58 319824  344 
3569.34Robyn Reyes   Beaumont, TX2:01:03 322750  343 Bronze Body Kinsel Ford
4589.99Katy Cornelius   Seabrook, TX2:15:33 366172  346 Texas Pro Health Racing
DNSJoy Norris   Shreveport, LADNS 301847  341 LSUHSC
DNSElizabeth Lurz   AbileneDNS 206473  342 ACU/Cap Carter Racing

Women - Cat 2 - 40-99

 Place Points NameCity, StateTime USAC #BibTeam
1Maria Hernandez   Reklaw, TX2:03:56 286821  352 
2Candace Mann   Kemah, TX2:15:55 341940  351 Team Texas Pro Health Racing
DNFKarin Gibbs   DNF  347 
DNFKrista Anderson   Texarkana, TXDNF 200947  353 CARVE

Women - Cat 3 - 1-10

 Place Points NameCity, StateTime USAC #BibTeam
1Emma Pitman   0:31:25  591 
2Bayley Otto   0:32:19  592 TACO CASA/Bicycles Plus
DNSMackenzie Chavez   DNS  593 

Women - Cat 3 - 11-12

 Place Points NameCity, StateTime USAC #BibTeam
1Claire Boatman   Austin, TX0:48:37 367044  582 Southern Elite/Sun & Ski Sports/APARD
2Kiara McDonald   0:59:36  581 

Women - Cat 3 - 19-39

 Place Points NameCity, StateTime USAC #BibTeam
1Wendy Brown   0:59:51  523 Texas Pro Health
2556.67Susannah Bannon   San Marcos, TX1:01:45 357738  521 Bike Barn Texas
3Emmylou Layne   1:10:31  524 Bikeland
4Kristin Danielson   1:17:09  525 

Women - Cat 3 - 40-99

 Place Points NameCity, StateTime USAC #BibTeam
1540.00Linda Tannos   League City, TX1:03:26 338466  534 Texas Pro Health Racing
2Liz Sandusky   1:04:56  533 Matrix Richardson Bike Mart
3590.00Kim Davis   Bowling Green, FL1:05:55 8812  535 Team Bike Lane
DNSDanielle Stephens   Bellaire, TXDNS 277800  532 Team Texas Pro Health Racing
DNSLora Decker   DNS  531 Team Texas Pro Health

Report missing or incorrect license numbers

Volkswagen
SpyCUOREShimanoSierra NevadaBonk BreakerUSACDF
UCI USA Cycling is the official governing body for all disciplines of competitive cycling in the United States. The 501c3, membership-based organization aims both to achieve sustained success in international cycling competition and to grow competitive cycling in America while delivering an exceptional customer experience.
View Children's Online Privacy Protection Policy
US Olympic Committee